Time;durP1;ratioP1;P1;durP2;ratioP2;P2;SDS_P1;SDS_P2;PMS_P1;PMS_P2;Temp;Humidity;BMP_temperature;BMP_pressure;BME280_temperature;BME280_humidity;BME280_pressure;Samples;Min_cycle;Max_cycle;Signal;HPM_P1;HPM_P2
2022/03/16 00:08:11;;;;;;;22.42;18.02;;;;;;;;;;5042300;28;20236;-60
2022/03/16 00:10:41;;;;;;;23.20;17.60;;;;;;;;;;5045606;28;20035;-59
2022/03/16 00:14:18;;;;;;;22.23;18.42;;;;;;;;;;5045740;28;20037;-59
2022/03/16 00:25:50;;;;;;;23.02;18.85;;;;;;;;;;5067619;28;20040;-59
2022/03/16 00:28:35;;;;;;;25.80;20.67;;;;;;;;;;5109141;28;20067;-59
2022/03/16 00:31:23;;;;;;;;;;;;;;;;;;;;;
2022/03/16 00:34:20;;;;;;;30.23;21.65;;;;;;;;;;5108954;28;20084;-59
2022/03/16 00:36:47;;;;;;;28.83;22.25;;;;;;;;;;5091480;28;20031;-59
2022/03/16 00:42:08;;;;;;;27.77;21.38;;;;;;;;;;5109476;28;20031;-59
2022/03/16 00:45:10;;;;;;;;;;;;;;;;;;;;;
2022/03/16 00:47:47;;;;;;;31.48;23.95;;;;;;;;;;5085602;28;20127;-60
2022/03/16 00:50:18;;;;;;;23.83;19.45;;;;;;;;;;5106329;28;20032;-60
2022/03/16 00:56:01;;;;;;;29.23;22.42;;;;;;;;;;5103369;28;20032;-59
2022/03/16 00:58:58;;;;;;;;;;;;;;;;;;;;;
2022/03/16 01:02:05;;;;;;;27.25;22.65;;;;;;;;;;5026498;28;20110;-59
2022/03/16 01:04:43;;;;;;;24.52;20.83;;;;;;;;;;5026031;28;20026;-60
2022/03/16 01:07:21;;;;;;;26.63;23.75;;;;;;;;;;5010087;28;20030;-59
2022/03/16 01:13:13;;;;;;;27.50;20.73;;;;;;;;;;5038900;28;20084;-60
2022/03/16 01:15:42;;;;;;;33.00;26.42;;;;;;;;;;5090392;28;20091;-59
2022/03/16 01:18:41;;;;;;;36.38;27.45;;;;;;;;;;5108667;28;20036;-59
2022/03/16 01:24:22;;;;;;;36.95;27.60;;;;;;;;;;5091071;28;20484;-59
2022/03/16 01:27:00;;;;;;;39.97;28.38;;;;;;;;;;5087812;28;20036;-60
2022/03/16 01:29:44;;;;;;;39.70;27.48;;;;;;;;;;5106070;28;20016;-60
2022/03/16 01:32:34;;;;;;;39.63;28.40;;;;;;;;;;5107802;28;20118;-60
2022/03/16 01:35:24;;;;;;;39.60;27.42;;;;;;;;;;5107578;28;20027;-59
2022/03/16 01:44:41;;;;;;;48.20;31.60;;;;;;;;;;5093025;28;20038;-59
2022/03/16 01:50:27;;;;;;;36.50;27.58;;;;;;;;;;5094231;28;20024;-60
2022/03/16 01:53:12;;;;;;;;;;;;;;;;;;;;;
2022/03/16 01:59:00;;;;;;;39.70;29.63;;;;;;;;;;5107739;28;20094;-59
2022/03/16 02:02:02;;;;;;;44.80;30.77;;;;;;;;;;5107862;28;20044;-60
2022/03/16 02:08:05;;;;;;;38.40;28.98;;;;;;;;;;5100897;28;20048;-59
2022/03/16 02:11:06;;;;;;;37.95;28.38;;;;;;;;;;5108762;28;20028;-60
2022/03/16 02:13:41;;;;;;;38.78;28.30;;;;;;;;;;5065734;28;20067;-59
2022/03/16 02:16:16;;;;;;;41.72;28.13;;;;;;;;;;5065774;28;20461;-60
2022/03/16 02:21:55;;;;;;;37.00;27.70;;;;;;;;;;4987613;28;20034;-60
2022/03/16 02:24:54;;;;;;;42.00;30.33;;;;;;;;;;4987772;28;20031;-60
2022/03/16 02:27:26;;;;;;;38.85;27.67;;;;;;;;;;4987490;28;20477;-60
2022/03/16 02:30:02;;;;;;;46.97;31.27;;;;;;;;;;4961288;28;20035;-60
2022/03/16 02:33:09;;;;;;;46.75;31.10;;;;;;;;;;4987256;28;20058;-60
2022/03/16 02:35:53;;;;;;;41.40;29.08;;;;;;;;;;5001130;28;20116;-60
2022/03/16 02:38:53;;;;;;;40.67;30.00;;;;;;;;;;5049199;28;20116;-59
2022/03/16 02:44:31;;;;;;;45.90;27.95;;;;;;;;;;5066702;28;20032;-60
2022/03/16 02:47:03;;;;;;;;;;;;;;;;;;5067275;28;20033;-60
2022/03/16 02:49:39;;;;;;;40.83;27.40;;;;;;;;;;5070191;28;19980;-59
2022/03/16 02:52:22;;;;;;;42.65;28.75;;;;;;;;;;5106579;28;20057;-60
2022/03/16 02:58:02;;;;;;;42.40;29.80;;;;;;;;;;5075144;28;20040;-60
2022/03/16 03:04:09;;;;;;;46.58;31.80;;;;;;;;;;5107056;28;20537;-59
2022/03/16 03:06:57;;;;;;;48.25;29.92;;;;;;;;;;5107178;28;20020;-60
2022/03/16 03:09:29;;;;;;;41.25;29.75;;;;;;;;;;5085225;28;20482;-59
2022/03/16 03:12:18;;;;;;;57.53;34.45;;;;;;;;;;5085376;28;20394;-59
2022/03/16 03:17:56;;;;;;;44.10;32.17;;;;;;;;;;5084325;28;20089;-59
2022/03/16 03:20:28;;;;;;;47.70;31.33;;;;;;;;;;5067683;28;20123;-59
2022/03/16 03:23:20;;;;;;;55.42;33.65;;;;;;;;;;5084013;28;20036;-60
2022/03/16 03:29:13;;;;;;;47.10;32.45;;;;;;;;;;5024334;28;20064;-59
2022/03/16 03:31:56;;;;;;;55.25;32.67;;;;;;;;;;5025355;28;20053;-59
2022/03/16 03:34:33;;;;;;;52.42;34.00;;;;;;;;;;5024585;28;20033;-59
2022/03/16 03:40:35;;;;;;;54.35;32.13;;;;;;;;;;4999516;28;20452;-60
2022/03/16 03:49:18;;;;;;;44.63;31.38;;;;;;;;;;4984984;28;20046;-60
2022/03/16 03:52:22;;;;;;;48.50;31.30;;;;;;;;;;5001948;28;20037;-59
2022/03/16 03:55:16;;;;;;;;;;;;;;;;;;;;;
2022/03/16 04:00:57;;;;;;;51.38;34.45;;;;;;;;;;5072528;28;20044;-60
2022/03/16 04:06:56;;;;;;;47.78;31.67;;;;;;;;;;5099827;28;20096;-60
2022/03/16 04:12:48;;;;;;;48.63;31.38;;;;;;;;;;5023472;28;20492;-60
2022/03/16 04:15:48;;;;;;;47.33;31.05;;;;;;;;;;5105605;28;20024;-59
2022/03/16 04:18:27;;;;;;;;;;;;;;;;;;;;;
2022/03/16 04:21:19;;;;;;;45.00;31.77;;;;;;;;;;5037706;28;20047;-59
2022/03/16 04:27:03;;;;;;;42.03;31.23;;;;;;;;;;5106325;28;20051;-60
2022/03/16 04:29:53;;;;;;;;;;;;;;;;;;;;;
2022/03/16 04:32:55;;;;;;;47.83;29.67;;;;;;;;;;5075492;28;20118;-59
2022/03/16 04:35:45;;;;;;;43.13;28.77;;;;;;;;;;5051916;28;20685;-59
2022/03/16 04:45:09;;;;;;;46.80;31.85;;;;;;;;;;5091878;28;20028;-59
2022/03/16 04:51:15;;;;;;;50.97;33.33;;;;;;;;;;5094132;28;20489;-59
2022/03/16 04:53:59;;;;;;;42.28;31.17;;;;;;;;;;5094665;28;20397;-59
2022/03/16 04:56:44;;;;;;;40.67;30.50;;;;;;;;;;5094259;28;20120;-59
2022/03/16 04:59:17;;;;;;;45.78;30.92;;;;;;;;;;5094133;28;20108;-59
2022/03/16 05:02:08;;;;;;;36.05;26.75;;;;;;;;;;5074901;28;20048;-59
2022/03/16 05:05:12;;;;;;;38.17;27.85;;;;;;;;;;5097999;28;20036;-59
2022/03/16 05:07:56;;;;;;;;;;;;;;;;;;;;;
2022/03/16 05:10:25;;;;;;;36.67;26.45;;;;;;;;;;5094064;28;20119;-59
2022/03/16 05:13:38;;;;;;;35.67;26.73;;;;;;;;;;5091844;28;20478;-60
2022/03/16 05:16:26;;;;;;;44.38;31.23;;;;;;;;;;5093573;28;20043;-59
2022/03/16 05:25:35;;;;;;;39.22;29.27;;;;;;;;;;5012497;28;20468;-59
2022/03/16 05:28:19;;;;;;;52.63;31.60;;;;;;;;;;5034530;28;20167;-59
2022/03/16 05:30:48;;;;;;;48.80;30.75;;;;;;;;;;5035301;28;20108;-59
2022/03/16 05:33:26;;;;;;;47.60;28.73;;;;;;;;;;5096831;28;20477;-59
2022/03/16 05:38:49;;;;;;;38.90;28.95;;;;;;;;;;5097339;28;20074;-59
2022/03/16 05:41:45;;;;;;;47.15;30.05;;;;;;;;;;5073135;28;20036;-60
2022/03/16 05:47:28;;;;;;;46.40;31.92;;;;;;;;;;5015623;28;20046;-60
2022/03/16 05:53:14;;;;;;;49.63;32.63;;;;;;;;;;5080383;28;20028;-60
2022/03/16 05:55:55;;;;;;;44.35;30.58;;;;;;;;;;5097811;28;20020;-60
2022/03/16 06:04:51;;;;;;;52.50;34.05;;;;;;;;;;5086991;28;20032;-59
2022/03/16 06:07:33;;;;;;;41.80;31.13;;;;;;;;;;5069492;28;20036;-60
2022/03/16 06:13:39;;;;;;;52.40;33.05;;;;;;;;;;5095939;28;20028;-60
2022/03/16 06:16:52;;;;;;;46.92;31.20;;;;;;;;;;5052826;28;20464;-59
2022/03/16 06:19:39;;;;;;;47.72;30.20;;;;;;;;;;5085562;28;20089;-60
2022/03/16 06:25:33;;;;;;;52.97;31.63;;;;;;;;;;5095778;28;20064;-60
2022/03/16 06:31:33;;;;;;;48.72;32.97;;;;;;;;;;5063845;28;20028;-60
2022/03/16 06:37:51;;;;;;;39.88;30.70;;;;;;;;;;5092241;28;20027;-59
2022/03/16 06:40:20;;;;;;;51.70;31.45;;;;;;;;;;5060047;28;20030;-59
2022/03/16 06:42:53;;;;;;;49.53;31.13;;;;;;;;;;5095988;28;20383;-60
2022/03/16 06:45:39;;;;;;;;;;;;;;;;;;;;;
2022/03/16 06:51:51;;;;;;;47.63;31.27;;;;;;;;;;5077823;28;20115;-60
2022/03/16 06:54:58;;;;;;;57.55;31.83;;;;;;;;;;5077979;28;20039;-59
2022/03/16 06:57:54;;;;;;;47.33;32.53;;;;;;;;;;5052746;28;20061;-60
2022/03/16 07:00:42;;;;;;;43.78;30.17;;;;;;;;;;5092624;28;20097;-60
2022/03/16 07:03:21;;;;;;;44.85;30.50;;;;;;;;;;5035417;28;20036;-60
2022/03/16 07:09:02;;;;;;;53.22;30.58;;;;;;;;;;5049534;28;20041;-60
2022/03/16 07:11:46;;;;;;;57.03;33.30;;;;;;;;;;5051930;28;20021;-60
2022/03/16 07:14:33;;;;;;;58.03;32.60;;;;;;;;;;5070131;28;20039;-59
2022/03/16 07:20:13;;;;;;;78.20;39.38;;;;;;;;;;5012793;28;20026;-60
2022/03/16 07:23:18;;;;;;;59.03;33.63;;;;;;;;;;5030569;28;20032;-60
2022/03/16 07:32:04;;;;;;;52.45;31.00;;;;;;;;;;5013298;28;20046;-60
2022/03/16 07:34:54;;;;;;;;;;;;;;;;;;;;;
2022/03/16 07:37:22;;;;;;;49.95;31.25;;;;;;;;;;4977386;28;20044;-59
2022/03/16 07:43:27;;;;;;;52.80;30.65;;;;;;;;;;5047650;28;20044;-59
2022/03/16 07:46:00;;;;;;;50.97;30.83;;;;;;;;;;5012529;28;20121;-60
2022/03/16 07:48:56;;;;;;;58.20;31.60;;;;;;;;;;4980664;28;20129;-59
2022/03/16 07:54:58;;;;;;;50.67;30.92;;;;;;;;;;5012412;28;20096;-60
2022/03/16 07:57:29;;;;;;;53.40;31.92;;;;;;;;;;5043578;28;20406;-60
2022/03/16 08:03:27;;;;;;;50.97;32.53;;;;;;;;;;5019538;28;20081;-59
2022/03/16 08:06:16;;;;;;;47.85;27.90;;;;;;;;;;5076246;28;20028;-59
2022/03/16 08:08:51;;;;;;;42.17;27.33;;;;;;;;;;5095391;28;20028;-59
2022/03/16 08:20:48;;;;;;;38.85;27.60;;;;;;;;;;5092782;28;20039;-59
2022/03/16 08:23:24;;;;;;;47.00;25.30;;;;;;;;;;5074332;28;20040;-59
2022/03/16 08:26:10;;;;;;;42.97;26.55;;;;;;;;;;5046996;28;20258;-59
2022/03/16 08:29:07;;;;;;;;;;;;;;;;;;;;;
2022/03/16 08:31:43;;;;;;;49.13;29.45;;;;;;;;;;5087587;28;20191;-59
2022/03/16 08:34:56;;;;;;;49.67;29.48;;;;;;;;;;5094225;28;20028;-59
2022/03/16 08:40:19;;;;;;;45.00;27.80;;;;;;;;;;5098298;28;20035;-60
2022/03/16 08:43:00;;;;;;;47.95;27.42;;;;;;;;;;5080239;28;20119;-59
2022/03/16 08:46:06;;;;;;;48.05;30.40;;;;;;;;;;5098199;28;20050;-60
2022/03/16 08:48:52;;;;;;;41.63;29.67;;;;;;;;;;5076572;28;20040;-59
2022/03/16 08:51:43;;;;;;;46.67;29.60;;;;;;;;;;5078814;28;20028;-59
2022/03/16 08:54:12;;;;;;;;;;;;;;;;;;5096777;28;20059;-59
2022/03/16 08:59:55;;;;;;;46.65;30.25;;;;;;;;;;5096280;28;20531;-59
2022/03/16 09:02:50;;;;;;;48.95;28.30;;;;;;;;;;5071718;28;20052;-59
2022/03/16 09:08:56;;;;;;;42.55;27.20;;;;;;;;;;5097401;28;20436;-59
2022/03/16 09:11:48;;;;;;;34.08;24.92;;;;;;;;;;5097781;28;20066;-58
2022/03/16 09:14:23;;;;;;;33.65;24.55;;;;;;;;;;5097220;28;20028;-58
2022/03/16 09:17:04;;;;;;;36.13;25.05;;;;;;;;;;5097599;28;20024;-58
2022/03/16 09:19:42;;;;;;;;;;;;;;;;;;5079779;28;20374;-59
2022/03/16 09:22:36;;;;;;;35.92;24.70;;;;;;;;;;5097176;28;19965;-58
2022/03/16 09:25:07;;;;;;;45.08;25.20;;;;;;;;;;5085129;28;20036;-59
2022/03/16 09:28:05;;;;;;;33.20;23.10;;;;;;;;;;5054917;28;20127;-59
2022/03/16 09:36:45;;;;;;;40.70;25.55;;;;;;;;;;4976273;28;20085;-59
2022/03/16 09:39:23;;;;;;;34.85;24.45;;;;;;;;;;4976786;28;20473;-57
2022/03/16 09:42:29;;;;;;;34.30;27.00;;;;;;;;;;4975990;28;20031;-58
2022/03/16 09:45:41;;;;;;;;;;;;;;;;;;;;;
2022/03/16 09:48:23;;;;;;;39.20;25.48;;;;;;;;;;4967466;28;20043;-59
2022/03/16 09:51:13;;;;;;;30.50;21.73;;;;;;;;;;4974899;28;20031;-58
2022/03/16 09:56:38;;;;;;;29.90;22.40;;;;;;;;;;5054835;28;20036;-58
2022/03/16 10:02:37;;;;;;;28.35;21.50;;;;;;;;;;5056527;28;20106;-58
2022/03/16 10:05:15;;;;;;;26.33;21.77;;;;;;;;;;5058480;28;20032;-59
2022/03/16 10:20:03;;;;;;;;;;;;;;;;;;;;;
2022/03/16 10:26:07;;;;;;;22.63;17.80;;;;;;;;;;5073295;28;20033;-58
2022/03/16 10:28:47;;;;;;;29.88;18.98;;;;;;;;;;5057753;28;20136;-58
2022/03/16 10:31:21;;;;;;;20.77;17.48;;;;;;;;;;5074494;28;20111;-59
2022/03/16 10:49:45;;;;;;;26.70;18.75;;;;;;;;;;5050169;28;20033;-57
2022/03/16 10:52:34;;;;;;;25.45;18.23;;;;;;;;;;5074935;28;20020;-59
2022/03/16 11:01:07;;;;;;;20.45;15.52;;;;;;;;;;5083151;28;20048;-58
2022/03/16 11:03:37;;;;;;;20.75;17.77;;;;;;;;;;5094825;28;20061;-58
2022/03/16 11:06:35;;;;;;;23.85;17.80;;;;;;;;;;5077041;28;20047;-58
2022/03/16 11:18:31;;;;;;;19.10;15.88;;;;;;;;;;5075133;28;20039;-58
2022/03/16 11:20:59;;;;;;;;;;;;;;;;;;5095363;28;20528;-58
2022/03/16 11:29:59;;;;;;;18.77;16.33;;;;;;;;;;5094753;28;20040;-58
2022/03/16 11:33:02;;;;;;;20.35;15.77;;;;;;;;;;5094765;28;20039;-58
2022/03/16 11:35:50;;;;;;;17.52;15.57;;;;;;;;;;5095650;28;20051;-58
2022/03/16 11:38:25;;;;;;;22.02;15.45;;;;;;;;;;5075891;28;20489;-58
2022/03/16 11:41:46;;;;;;;;;;;;;;;;;;;;;
2022/03/16 11:44:47;;;;;;;22.48;17.60;;;;;;;;;;5051070;28;20517;-58
2022/03/16 11:47:35;;;;;;;19.80;16.77;;;;;;;;;;5012867;28;20464;-58
2022/03/16 11:50:16;;;;;;;23.35;15.77;;;;;;;;;;5037061;28;20397;-56
2022/03/16 11:53:17;;;;;;;22.80;16.17;;;;;;;;;;5075782;28;20448;-57
2022/03/16 11:56:03;;;;;;;24.55;17.00;;;;;;;;;;5077354;28;20036;-58
2022/03/16 12:02:01;;;;;;;19.00;15.25;;;;;;;;;;5078331;28;20047;-58
2022/03/16 12:14:02;;;;;;;18.60;15.98;;;;;;;;;;5090011;28;20054;-58
2022/03/16 12:17:00;;;;;;;20.02;15.88;;;;;;;;;;5093409;28;20498;-58
2022/03/16 12:19:35;;;;;;;20.92;17.10;;;;;;;;;;5094654;28;20024;-58
2022/03/16 12:25:53;;;;;;;18.83;14.38;;;;;;;;;;5090860;28;20036;-58
2022/03/16 12:31:42;;;;;;;18.40;15.20;;;;;;;;;;5094136;28;20035;-58
2022/03/16 12:34:18;;;;;;;20.70;16.02;;;;;;;;;;5094271;28;20060;-58
2022/03/16 12:37:31;;;;;;;18.33;15.13;;;;;;;;;;5094285;28;20175;-59
2022/03/16 12:40:18;;;;;;;21.33;17.02;;;;;;;;;;5076577;28;20115;-57
2022/03/16 12:43:27;;;;;;;17.80;15.73;;;;;;;;;;5095462;28;20032;-58
2022/03/16 12:49:33;;;;;;;20.15;14.75;;;;;;;;;;5059103;28;20032;-58
2022/03/16 12:52:41;;;;;;;;;;;;;;;;;;;;;
2022/03/16 12:55:19;;;;;;;17.40;14.10;;;;;;;;;;5094538;28;20087;-58
2022/03/16 12:58:10;;;;;;;17.88;15.35;;;;;;;;;;5072132;28;20045;-59
2022/03/16 13:00:48;;;;;;;16.30;13.75;;;;;;;;;;5071592;28;20067;-59
2022/03/16 13:03:54;;;;;;;17.65;15.35;;;;;;;;;;5057336;28;20040;-58
2022/03/16 13:09:50;;;;;;;17.55;14.07;;;;;;;;;;4972148;28;20043;-58
2022/03/16 13:12:41;;;;;;;20.55;14.70;;;;;;;;;;4992433;28;20456;-58
2022/03/16 13:15:31;;;;;;;17.33;13.37;;;;;;;;;;5026141;28;20458;-58
2022/03/16 13:21:21;;;;;;;15.30;13.27;;;;;;;;;;5070680;28;20029;-58
2022/03/16 13:24:02;;;;;;;15.70;12.85;;;;;;;;;;5046306;28;20460;-58
2022/03/16 13:26:34;;;;;;;14.32;12.85;;;;;;;;;;5054236;28;20025;-59
2022/03/16 13:35:32;;;;;;;15.70;12.95;;;;;;;;;;5070802;28;20033;-58
2022/03/16 13:38:37;;;;;;;17.55;13.52;;;;;;;;;;5074850;28;20426;-58
2022/03/16 13:44:39;;;;;;;20.25;12.60;;;;;;;;;;5053984;28;20035;-58
2022/03/16 13:47:26;;;;;;;15.50;12.63;;;;;;;;;;5059450;28;20029;-58
2022/03/16 13:49:57;;;;;;;15.90;13.52;;;;;;;;;;5074437;28;20119;-58
2022/03/16 13:52:55;;;;;;;15.52;13.20;;;;;;;;;;5057192;28;20075;-59
2022/03/16 13:55:56;;;;;;;15.00;13.32;;;;;;;;;;5085761;28;20082;-58
2022/03/16 13:58:44;;;;;;;16.60;13.55;;;;;;;;;;5090614;28;20039;-58
2022/03/16 14:01:53;;;;;;;16.85;13.93;;;;;;;;;;5094640;28;20044;-58
2022/03/16 14:04:49;;;;;;;14.10;12.20;;;;;;;;;;5053705;28;20385;-58
2022/03/16 14:07:40;;;;;;;16.52;13.50;;;;;;;;;;5054531;28;20024;-58
2022/03/16 14:10:33;;;;;;;16.20;13.85;;;;;;;;;;5048802;28;20128;-59
2022/03/16 14:16:31;;;;;;;19.88;14.45;;;;;;;;;;5053749;28;20107;-59
2022/03/16 14:22:53;;;;;;;;;;;;;;;;;;;;;
2022/03/16 14:25:46;;;;;;;17.45;14.20;;;;;;;;;;5054772;28;20394;-59
2022/03/16 14:28:29;;;;;;;18.73;13.63;;;;;;;;;;5068638;28;20485;-59
2022/03/16 14:31:07;;;;;;;22.75;15.40;;;;;;;;;;5095493;28;20469;-58
2022/03/16 14:33:40;;;;;;;14.55;12.30;;;;;;;;;;5093553;28;20382;-58
2022/03/16 14:36:36;;;;;;;;;;;;;;;;;;;;;
2022/03/16 14:39:18;;;;;;;17.27;14.15;;;;;;;;;;5083820;28;20040;-58
2022/03/16 14:44:48;;;;;;;18.98;12.88;;;;;;;;;;5096132;28;20081;-58
2022/03/16 14:48:04;;;;;;;;;;;;;;;;;;;;;
2022/03/16 14:54:33;;;;;;;20.25;13.30;;;;;;;;;;5010699;28;20030;-59
2022/03/16 14:57:24;;;;;;;19.05;13.55;;;;;;;;;;4975259;28;20465;-58
2022/03/16 15:00:11;;;;;;;18.55;14.02;;;;;;;;;;4974777;28;20038;-58
2022/03/16 15:02:45;;;;;;;17.13;14.63;;;;;;;;;;5013090;28;20488;-57
2022/03/16 15:05:47;;;;;;;;;;;;;;;;;;;;;
2022/03/16 15:08:37;;;;;;;17.27;14.70;;;;;;;;;;5001086;28;20428;-58
2022/03/16 15:11:05;;;;;;;17.92;13.93;;;;;;;;;;5011764;28;20034;-58
2022/03/16 15:20:10;;;;;;;18.98;13.82;;;;;;;;;;5014071;28;20054;-58
2022/03/16 15:23:01;;;;;;;19.42;13.75;;;;;;;;;;5014002;28;20041;-58
2022/03/16 15:25:46;;;;;;;14.90;13.32;;;;;;;;;;5014086;28;20026;-58
2022/03/16 15:28:24;;;;;;;17.77;14.18;;;;;;;;;;5019911;28;20046;-58
2022/03/16 15:30:56;;;;;;;18.42;14.00;;;;;;;;;;5012388;28;20582;-57
2022/03/16 15:36:50;;;;;;;20.40;14.23;;;;;;;;;;5094075;28;20481;-58
2022/03/16 15:39:35;;;;;;;19.15;16.05;;;;;;;;;;5074639;28;20142;-59
2022/03/16 15:42:58;;;;;;;17.45;14.18;;;;;;;;;;5051488;28;20583;-59
2022/03/16 15:45:45;;;;;;;14.63;12.73;;;;;;;;;;5034608;28;20037;-59
2022/03/16 15:48:23;;;;;;;21.80;15.75;;;;;;;;;;5050896;28;20043;-58
2022/03/16 15:54:17;;;;;;;16.52;14.00;;;;;;;;;;5023923;28;20039;-58
2022/03/16 15:57:11;;;;;;;17.25;13.73;;;;;;;;;;5033999;28;20112;-58
2022/03/16 16:00:03;;;;;;;15.68;13.93;;;;;;;;;;5051594;28;20037;-58
2022/03/16 16:02:50;;;;;;;17.08;13.43;;;;;;;;;;5011338;28;20113;-58
2022/03/16 16:05:28;;;;;;;18.00;14.23;;;;;;;;;;5051973;28;20040;-58
2022/03/16 16:08:04;;;;;;;15.25;13.00;;;;;;;;;;5051634;28;20048;-58
2022/03/16 16:20:53;;;;;;;;;;;;;;;;;;;;;
2022/03/16 16:23:25;;;;;;;16.23;12.35;;;;;;;;;;5048241;28;20028;-57
2022/03/16 16:26:13;;;;;;;19.52;13.07;;;;;;;;;;5094148;28;20012;-57
2022/03/16 16:29:07;;;;;;;;;;;;;;;;;;;;;
2022/03/16 16:32:07;;;;;;;18.42;14.50;;;;;;;;;;5079096;28;20024;-57
2022/03/16 16:34:46;;;;;;;19.55;15.35;;;;;;;;;;5091144;28;20038;-56
2022/03/16 16:37:24;;;;;;;18.42;14.07;;;;;;;;;;5075470;28;20032;-57
2022/03/16 16:40:33;;;;;;;;;;;;;;;;;;;;;
2022/03/16 16:52:19;;;;;;;16.08;13.25;;;;;;;;;;5030169;28;20432;-57
2022/03/16 16:55:00;;;;;;;14.93;13.45;;;;;;;;;;5031201;28;20409;-57
2022/03/16 16:57:59;;;;;;;16.10;12.73;;;;;;;;;;5031650;28;20571;-57
2022/03/16 17:00:30;;;;;;;18.30;14.50;;;;;;;;;;5059952;28;20492;-57
2022/03/16 17:03:25;;;;;;;16.98;14.07;;;;;;;;;;5079572;28;20173;-57
2022/03/16 17:06:18;;;;;;;14.88;11.63;;;;;;;;;;5095330;28;20600;-57
2022/03/16 17:09:38;;;;;;;16.63;13.57;;;;;;;;;;5095920;28;20102;-57
2022/03/16 17:12:03;;;;;;;14.88;12.48;;;;;;;;;;5076624;28;20047;-57
2022/03/16 17:20:43;;;;;;;17.17;13.95;;;;;;;;;;5059943;28;20071;-58
2022/03/16 17:26:54;;;;;;;17.30;13.90;;;;;;;;;;5072933;28;20032;-58
2022/03/16 17:29:35;;;;;;;16.63;13.45;;;;;;;;;;5095974;28;20514;-58
2022/03/16 17:35:28;;;;;;;16.38;13.70;;;;;;;;;;5086642;28;20413;-57
2022/03/16 17:38:04;;;;;;;18.10;13.75;;;;;;;;;;5097664;28;20040;-57
2022/03/16 17:46:55;;;;;;;16.83;13.38;;;;;;;;;;5103143;28;20027;-58
2022/03/16 17:49:42;;;;;;;18.42;13.10;;;;;;;;;;5078644;28;20572;-58
2022/03/16 17:52:43;;;;;;;15.50;13.77;;;;;;;;;;5096407;28;20496;-58
2022/03/16 17:58:11;;;;;;;17.65;13.68;;;;;;;;;;5096497;28;20074;-58
2022/03/16 18:01:05;;;;;;;17.02;13.75;;;;;;;;;;5078468;28;20028;-58
2022/03/16 18:13:15;;;;;;;17.00;14.35;;;;;;;;;;5096250;28;20070;-59
2022/03/16 18:15:51;;;;;;;19.90;16.70;;;;;;;;;;5077673;28;20042;-59
2022/03/16 18:18:30;;;;;;;20.77;15.80;;;;;;;;;;5076864;28;20516;-59
2022/03/16 18:24:01;;;;;;;18.98;14.88;;;;;;;;;;5096135;28;20038;-58
2022/03/16 18:29:37;;;;;;;24.48;18.42;;;;;;;;;;5071690;28;20040;-58
2022/03/16 18:32:30;;;;;;;18.88;16.23;;;;;;;;;;5093556;28;20503;-58
2022/03/16 18:35:38;;;;;;;18.25;15.88;;;;;;;;;;5096157;28;20082;-58
2022/03/16 18:38:33;;;;;;;20.70;14.77;;;;;;;;;;5090289;28;20122;-59
2022/03/16 18:44:10;;;;;;;16.13;14.45;;;;;;;;;;5095385;28;20039;-57
2022/03/16 18:49:54;;;;;;;16.77;14.82;;;;;;;;;;5094855;28;20040;-57
2022/03/16 18:52:43;;;;;;;19.98;14.32;;;;;;;;;;5095630;28;20035;-58
2022/03/16 18:55:28;;;;;;;17.80;15.52;;;;;;;;;;5095435;28;20488;-58
2022/03/16 18:58:06;;;;;;;17.90;15.70;;;;;;;;;;5095876;28;20038;-58
2022/03/16 19:00:44;;;;;;;20.52;18.02;;;;;;;;;;5095724;28;20020;-58
2022/03/16 19:03:23;;;;;;;19.83;16.70;;;;;;;;;;5094320;28;20051;-58
2022/03/16 19:09:26;;;;;;;22.25;17.92;;;;;;;;;;5071012;28;20032;-58
2022/03/16 19:20:51;;;;;;;23.40;17.75;;;;;;;;;;5094999;28;20051;-58
2022/03/16 19:23:43;;;;;;;;;;;;;;;;;;;;;
2022/03/16 19:26:35;;;;;;;22.27;19.67;;;;;;;;;;5094295;28;20024;-58
2022/03/16 19:29:37;;;;;;;23.70;19.73;;;;;;;;;;5094738;28;20039;-58
2022/03/16 19:32:28;;;;;;;21.08;18.38;;;;;;;;;;5094213;28;20035;-56
2022/03/16 19:35:35;;;;;;;;;;;;;;;;;;;;;
2022/03/16 19:38:38;;;;;;;20.92;18.73;;;;;;;;;;5088010;28;20034;-58
2022/03/16 19:41:31;;;;;;;21.27;18.88;;;;;;;;;;5094402;28;20024;-58
2022/03/16 19:50:28;;;;;;;;;;;;;;;;;;;;;
2022/03/16 19:53:28;;;;;;;;;;;;;;;;;;;;;
2022/03/16 19:56:13;;;;;;;21.98;19.20;;;;;;;;;;5037607;28;20111;-58
2022/03/16 19:58:54;;;;;;;;;;;;;;;;;;;;;
2022/03/16 20:01:45;;;;;;;22.67;19.38;;;;;;;;;;5083826;28;20042;-56
2022/03/16 20:07:22;;;;;;;23.27;20.15;;;;;;;;;;5094019;28;20444;-58
2022/03/16 20:10:16;;;;;;;22.70;19.77;;;;;;;;;;5091819;28;20051;-56
2022/03/16 20:16:07;;;;;;;25.20;21.98;;;;;;;;;;5079128;28;20036;-58
2022/03/16 20:18:58;;;;;;;21.33;19.17;;;;;;;;;;5068606;28;20397;-57
2022/03/16 20:21:56;;;;;;;22.20;19.05;;;;;;;;;;5075319;28;20079;-58
2022/03/16 20:24:49;;;;;;;22.23;19.83;;;;;;;;;;5093371;28;20035;-57
2022/03/16 20:30:42;;;;;;;24.60;20.70;;;;;;;;;;5093235;28;20489;-57
2022/03/16 20:36:08;;;;;;;22.10;18.98;;;;;;;;;;5086093;28;20035;-56
2022/03/16 20:38:56;;;;;;;21.90;19.70;;;;;;;;;;5079258;28;20427;-57
2022/03/16 20:41:46;;;;;;;22.80;20.15;;;;;;;;;;5097518;28;20045;-58
2022/03/16 20:44:40;;;;;;;26.45;21.83;;;;;;;;;;5097900;28;20020;-58
2022/03/16 20:47:51;;;;;;;22.08;19.83;;;;;;;;;;5097867;28;20512;-58
2022/03/16 20:50:19;;;;;;;;;;;;;;;;;;5097872;28;20039;-58
2022/03/16 20:56:09;;;;;;;23.63;20.45;;;;;;;;;;5035369;28;20026;-55
2022/03/16 21:02:11;;;;;;;27.17;23.10;;;;;;;;;;5035485;28;20036;-57
2022/03/16 21:04:59;;;;;;;27.52;23.45;;;;;;;;;;5077549;28;20048;-57
2022/03/16 21:13:37;;;;;;;27.00;23.52;;;;;;;;;;5097547;28;20043;-56
2022/03/16 21:25:16;;;;;;;26.90;22.53;;;;;;;;;;5097537;28;20040;-56
2022/03/16 21:27:58;;;;;;;28.35;24.88;;;;;;;;;;5078524;28;20035;-57
2022/03/16 21:30:53;;;;;;;37.03;26.42;;;;;;;;;;5097779;28;20446;-56
2022/03/16 21:33:45;;;;;;;27.92;24.13;;;;;;;;;;5067880;28;20036;-56
2022/03/16 21:39:32;;;;;;;25.75;22.95;;;;;;;;;;5088662;28;20032;-58
2022/03/16 21:45:40;;;;;;;26.42;23.60;;;;;;;;;;5096399;28;20543;-56
2022/03/16 21:53:45;;;;;;;27.45;23.27;;;;;;;;;;5053905;28;20486;-56
2022/03/16 21:56:24;;;;;;;27.63;24.52;;;;;;;;;;5054156;28;20033;-57
2022/03/16 21:59:12;;;;;;;29.20;25.13;;;;;;;;;;5082523;28;20093;-56
2022/03/16 22:05:02;;;;;;;30.23;25.25;;;;;;;;;;5097366;28;20109;-57
2022/03/16 22:07:54;;;;;;;26.70;23.08;;;;;;;;;;5097249;28;20072;-57
2022/03/16 22:10:30;;;;;;;27.23;24.33;;;;;;;;;;5096058;28;20036;-55
2022/03/16 22:13:09;;;;;;;30.80;22.90;;;;;;;;;;5097258;28;20489;-53
2022/03/16 22:16:05;;;;;;;28.20;22.45;;;;;;;;;;5071800;28;20036;-56
2022/03/16 22:19:12;;;;;;;24.67;22.13;;;;;;;;;;5097484;28;20521;-58
2022/03/16 22:21:47;;;;;;;27.13;22.67;;;;;;;;;;5018203;28;20033;-56
2022/03/16 22:24:42;;;;;;;24.58;21.30;;;;;;;;;;5017845;28;20046;-54
2022/03/16 22:27:19;;;;;;;28.98;22.35;;;;;;;;;;5018990;28;20022;-55
2022/03/16 22:33:24;;;;;;;28.20;22.45;;;;;;;;;;5022153;28;20033;-58
2022/03/16 22:36:16;;;;;;;24.10;21.58;;;;;;;;;;5035692;28;20452;-57
2022/03/16 22:39:20;;;;;;;28.98;23.42;;;;;;;;;;5008519;28;20491;-55
2022/03/16 22:42:21;;;;;;;25.67;22.95;;;;;;;;;;5010491;28;20432;-57
2022/03/16 22:45:11;;;;;;;28.23;24.50;;;;;;;;;;5031164;28;20033;-57
2022/03/16 22:50:55;;;;;;;25.95;22.42;;;;;;;;;;5044947;28;20060;-56
2022/03/16 22:53:59;;;;;;;;;;;;;;;;;;;;;
2022/03/16 22:59:51;;;;;;;24.85;22.23;;;;;;;;;;5045788;28;20060;-57
2022/03/16 23:02:26;;;;;;;29.55;22.25;;;;;;;;;;5037871;28;20379;-57
2022/03/16 23:05:10;;;;;;;24.55;21.23;;;;;;;;;;5053925;28;20057;-57
2022/03/16 23:14:04;;;;;;;25.08;20.65;;;;;;;;;;5096868;28;20070;-57
2022/03/16 23:16:58;;;;;;;25.77;20.67;;;;;;;;;;5097299;28;20107;-55
2022/03/16 23:20:05;;;;;;;;;;;;;;;;;;;;;
2022/03/16 23:22:47;;;;;;;23.13;20.25;;;;;;;;;;5032040;28;20093;-56
2022/03/16 23:25:32;;;;;;;25.92;19.98;;;;;;;;;;5017400;28;20037;-57
2022/03/16 23:28:27;;;;;;;25.52;21.77;;;;;;;;;;5034028;28;20029;-57
2022/03/16 23:31:09;;;;;;;22.90;20.48;;;;;;;;;;4975265;28;20523;-55
2022/03/16 23:33:50;;;;;;;24.10;21.35;;;;;;;;;;4976255;28;20458;-57
2022/03/16 23:36:29;;;;;;;22.63;20.10;;;;;;;;;;5028878;28;20465;-56
2022/03/16 23:39:24;;;;;;;;;;;;;;;;;;;;;
2022/03/16 23:42:09;;;;;;;26.23;21.40;;;;;;;;;;5096862;28;20123;-56
2022/03/16 23:44:46;;;;;;;29.70;22.60;;;;;;;;;;5097051;28;20031;-57
2022/03/16 23:47:28;;;;;;;23.50;20.52;;;;;;;;;;5097306;28;20044;-55
2022/03/16 23:50:27;;;;;;;23.85;20.20;;;;;;;;;;5088219;28;20028;-57
2022/03/16 23:55:43;;;;;;;27.15;22.00;;;;;;;;;;5096715;28;20513;-57
